Time;durP1;ratioP1;P1;durP2;ratioP2;P2;SDS_P1;SDS_P2;PMS_P1;PMS_P2;Temp;Humidity;BMP_temperature;BMP_pressure;BME280_temperature;BME280_humidity;BME280_pressure;Samples;Min_cycle;Max_cycle;Signal;HPM_P1;HPM_P2
2022/08/11 00:00:57;;;;;;;;;;;;;;;;;;4997535;28;8398;-78
2022/08/11 00:03:23;;;;;;;;;;;;;;;;;;4989035;28;8742;-77
2022/08/11 00:05:54;;;;;;;;;;;;;;;;;;4989429;28;8393;-79
2022/08/11 00:08:22;;;;;;;;;;;;;;;;;;4989489;28;8465;-78
2022/08/11 00:10:54;;;;;;;;;;;;;;;;;;4989735;28;8717;-78
2022/08/11 00:13:21;;;;;;;;;;;;;;;;;;5002699;28;8434;-78
2022/08/11 00:15:48;;;;;;;;;;;;;;;;;;5020711;28;8710;-79
2022/08/11 00:18:16;;;;;;;;;;;;;;;;;;4987790;28;8433;-79
2022/08/11 00:20:44;;;;;;;;;;;;;;;;;;4986163;28;7180;-82
2022/08/11 00:23:15;;;;;;;;;;;;;;;;;;5004158;28;7061;-82
2022/08/11 00:25:53;;;;;;;;;;;;;;;;;;4988143;28;8743;-81
2022/08/11 00:28:22;;;;;;;;;;;;;;;;;;4997977;28;7770;-82
2022/08/11 00:30:50;;;;;;;;;;;;;;;;;;5020523;28;8591;-81
2022/08/11 00:33:16;;;;;;;;;;;;;;;;;;4996359;28;9381;-82
2022/08/11 00:35:44;;;;;;;;;;;;;;;;;;5014100;28;8715;-82
2022/08/11 00:38:11;;;;;;;;;;;;;;;;;;5013825;28;8765;-82
2022/08/11 00:40:51;;;;;;;;;;;;;;;;;;5013628;28;7152;-81
2022/08/11 00:43:26;;;;;;;;;;;;;;;;;;4997187;28;8420;-82
2022/08/11 00:45:51;;;;;;;;;;;;;;;;;;5013491;28;8601;-82
2022/08/11 00:48:28;;;;;;;;;;;;;;;;;;5029923;28;8378;-82
2022/08/11 00:51:09;;;;;;;;;;;;;;;;;;4997235;28;8465;-80
2022/08/11 00:53:38;;;;;;;;;;;;;;;;;;4996926;28;7187;-82
2022/08/11 00:56:16;;;;;;;;;;;;;;;;;;4997275;28;7065;-82
2022/08/11 00:59:00;;;;;;;;;;;;;;;;;;4997152;28;8628;-82
2022/08/11 01:01:45;;;;;;;;;;;;;;;;;;4997367;28;7033;-81
2022/08/11 01:04:16;;;;;;;;;;;;;;;;;;5014620;28;7041;-82
2022/08/11 01:07:00;;;;;;;;;;;;;;;;;;5030289;28;8424;-82
2022/08/11 01:09:45;;;;;;;;;;;;;;;;;;5030124;28;8751;-81
2022/08/11 01:12:33;;;;;;;;;;;;;;;;;;5030019;28;8369;-82
2022/08/11 01:14:58;;;;;;;;;;;;;;;;;;4995986;28;8565;-82
2022/08/11 01:17:34;;;;;;;;;;;;;;;;;;4997015;28;8423;-80
2022/08/11 01:20:03;;;;;;;;;;;;;;;;;;4996740;28;8611;-82
2022/08/11 01:22:43;;;;;;;;;;;;;;;;;;5013414;28;6861;-82
2022/08/11 01:25:28;;;;;;;;;;;;;;;;;;5029713;28;8619;-83
2022/08/11 01:28:13;;;;;;;;;;;;;;;;;;5029891;28;7158;-82
2022/08/11 01:30:56;;;;;;;;;;;;;;;;;;4996846;28;7141;-82
2022/08/11 01:33:45;;;;;;;;;;;;;;;;;;4996739;28;8741;-82
2022/08/11 01:36:37;;;;;;;;;;;;;;;;;;4978755;28;8530;-81
2022/08/11 01:39:21;;;;;;;;;;;;;;;;;;4994688;28;8329;-82
2022/08/11 01:44:48;;;;;;;;;;;;;;;;;;5018172;28;6793;-82
2022/08/11 01:50:22;;;;;;;;;;;;;;;;;;5017923;28;6765;-82
2022/08/11 01:53:07;;;;;;;;;;;;;;;;;;5000422;28;8628;-83
2022/08/11 01:55:49;;;;;;;;;;;;;;;;;;5012801;28;8923;-81
2022/08/11 01:58:18;;;;;;;;;;;;;;;;;;5016249;28;7044;-82
2022/08/11 02:00:51;;;;;;;;;;;;;;;;;;5032991;28;8763;-82
2022/08/11 02:03:30;;;;;;;;;;;;;;;;;;5000054;28;8443;-81
2022/08/11 02:09:11;;;;;;;;;;;;;;;;;;5017419;28;6698;-81
2022/08/11 02:11:38;;;;;;;;;;;;;;;;;;5032422;28;8790;-81
2022/08/11 02:14:06;;;;;;;;;;;;;;;;;;5000109;28;7240;-82
2022/08/11 02:16:34;;;;;;;;;;;;;;;;;;5033104;28;9368;-82
2022/08/11 02:24:45;;;;;;;;;;;;;;;;;;5017591;28;6916;-81
2022/08/11 02:27:18;;;;;;;;;;;;;;;;;;5016196;28;8742;-82
2022/08/11 02:30:05;;;;;;;;;;;;;;;;;;4999372;28;8811;-81
2022/08/11 02:35:27;;;;;;;;;;;;;;;;;;5008012;28;6953;-82
2022/08/11 02:38:05;;;;;;;;;;;;;;;;;;4990006;28;7922;-81
2022/08/11 02:40:30;;;;;;;;;;;;;;;;;;4998776;28;8815;-82
2022/08/11 02:43:05;;;;;;;;;;;;;;;;;;4987958;28;7060;-82
2022/08/11 02:45:31;;;;;;;;;;;;;;;;;;4988484;28;7060;-82
2022/08/11 02:51:24;;;;;;;;;;;;;;;;;;5006571;28;6823;-82
2022/08/11 02:53:59;;;;;;;;;;;;;;;;;;4988680;28;8814;-81
2022/08/11 02:56:25;;;;;;;;;;;;;;;;;;4989743;28;8488;-82
2022/08/11 03:02:05;;;;;;;;;;;;;;;;;;5007380;28;6952;-81
2022/08/11 03:04:48;;;;;;;;;;;;;;;;;;4989095;28;8798;-81
2022/08/11 03:07:37;;;;;;;;;;;;;;;;;;5031005;28;7097;-81
2022/08/11 03:10:13;;;;;;;;;;;;;;;;;;4997802;28;7109;-79
2022/08/11 03:18:55;;;;;;;;;;;;;;;;;;5004369;28;7243;-80
2022/08/11 03:21:25;;;;;;;;;;;;;;;;;;4998724;28;8457;-80
2022/08/11 03:24:02;;;;;;;;;;;;;;;;;;4998989;28;8387;-82
2022/08/11 03:26:56;;;;;;;;;;;;;;;;;;4998550;28;8411;-80
2022/08/11 03:29:32;;;;;;;;;;;;;;;;;;5014838;28;8841;-81
2022/08/11 03:32:03;;;;;;;;;;;;;;;;;;4998489;28;7070;-80
2022/08/11 03:34:35;;;;;;;;;;;;;;;;;;4998375;28;8766;-82
2022/08/11 03:40:06;;;;;;;;;;;;;;;;;;5015776;28;7014;-81
2022/08/11 03:42:42;;;;;;;;;;;;;;;;;;5014571;28;8316;-82
2022/08/11 03:45:26;;;;;;;;;;;;;;;;;;4998720;28;9232;-81
2022/08/11 03:47:54;;;;;;;;;;;;;;;;;;4999132;28;8300;-81
2022/08/11 03:50:45;;;;;;;;;;;;;;;;;;4997978;28;8429;-81
2022/08/11 03:53:18;;;;;;;;;;;;;;;;;;4998750;28;8697;-81
2022/08/11 03:55:53;;;;;;;;;;;;;;;;;;4997487;28;8571;-83
2022/08/11 03:58:18;;;;;;;;;;;;;;;;;;4997654;28;8463;-83
2022/08/11 04:00:44;;;;;;;;;;;;;;;;;;4997760;28;7213;-83
2022/08/11 04:03:18;;;;;;;;;;;;;;;;;;4998188;28;7155;-84
2022/08/11 04:05:44;;;;;;;;;;;;;;;;;;4998143;28;7162;-80
2022/08/11 04:08:12;;;;;;;;;;;;;;;;;;4998160;28;7121;-82
2022/08/11 04:10:45;;;;;;;;;;;;;;;;;;4997837;28;8591;-83
2022/08/11 04:13:28;;;;;;;;;;;;;;;;;;4997537;28;7481;-82
2022/08/11 04:16:01;;;;;;;;;;;;;;;;;;4997921;28;8414;-83
2022/08/11 04:18:45;;;;;;;;;;;;;;;;;;4997727;28;8792;-83
2022/08/11 04:21:36;;;;;;;;;;;;;;;;;;4997921;28;8418;-82
2022/08/11 04:24:26;;;;;;;;;;;;;;;;;;4997532;28;7051;-81
2022/08/11 04:27:06;;;;;;;;;;;;;;;;;;5013451;28;8311;-81
2022/08/11 04:29:34;;;;;;;;;;;;;;;;;;4997380;28;7051;-81
2022/08/11 04:32:00;;;;;;;;;;;;;;;;;;4997296;28;8349;-81
2022/08/11 04:34:35;;;;;;;;;;;;;;;;;;5013700;28;9216;-80
2022/08/11 04:40:10;;;;;;;;;;;;;;;;;;5014924;28;6784;-80
2022/08/11 04:45:44;;;;;;;;;;;;;;;;;;5014014;28;7065;-82
2022/08/11 05:03:16;;;;;;;;;;;;;;;;;;4953860;29;6803;-80
2022/08/11 05:05:53;;;;;;;;;;;;;;;;;;4953618;29;8817;-82
2022/08/11 05:08:37;;;;;;;;;;;;;;;;;;4950626;28;8163;-81
2022/08/11 05:11:08;;;;;;;;;;;;;;;;;;4973497;28;8745;-82
2022/08/11 05:36:49;;;;;;;;;;;;;;;;;;5017962;28;6978;-81
2022/08/11 05:58:41;;;;;;;;;;;;;;;;;;5017361;28;6931;-81
2022/08/11 06:01:08;;;;;;;;;;;;;;;;;;4999661;28;7042;-81
2022/08/11 06:04:16;;;;;;;;;;;;;;;;;;4999719;28;8316;-81
2022/08/11 06:06:28;;;;;;;;;;;;;;;;;;5011248;28;7240;-80
2022/08/11 06:08:56;;;;;;;;;;;;;;;;;;4999806;28;7168;-81
2022/08/11 06:11:22;;;;;;;;;;;;;;;;;;5015737;28;8356;-81
2022/08/11 06:13:48;;;;;;;;;;;;;;;;;;4999805;28;8541;-79
2022/08/11 07:17:16;;;;;;;;;;;;;;;;;;6050867;22;1424769;-61
2022/08/11 07:30:57;;;;;;;;;;;;;;;;;;6078801;23;6946;-61
2022/08/11 07:33:28;;;;;;;;;;;;;;;;;;6078378;23;6958;-61
2022/08/11 07:35:57;;;;;;;;;;;;;;;;;;6079185;23;6956;-62
2022/08/11 07:38:42;;;;;;;;;;;;;;;;;;6078537;23;7182;-60
2022/08/11 07:41:15;;;;;;;;;;;;;;;;;;6053046;23;7207;-60
2022/08/11 07:43:42;;;;;;;;;;;;;;;;;;6078953;23;7517;-60
2022/08/11 07:54:26;;;;;;;;;;;;;;;;;;6078167;23;6821;-61
2022/08/11 08:17:56;;;;;;;;;;;;;;;;;;6102187;23;6886;-61
2022/08/11 08:20:24;;;;;;;;;;;;;;;;;;6100325;23;7902;-62
2022/08/11 08:22:55;;;;;;;;;;;;;;;;;;6100664;23;7225;-59
2022/08/11 08:25:29;;;;;;;;;;;;;;;;;;6100678;23;7162;-60
2022/08/11 08:27:56;;;;;;;;;;;;;;;;;;6100006;23;7156;-60
2022/08/11 08:33:10;;;;;;;;;;;;;;;;;;6099509;23;6842;-60
2022/08/11 08:35:36;;;;;;;;;;;;;;;;;;6099591;23;7225;-60
2022/08/11 08:38:02;;;;;;;;;;;;;;;;;;6099685;23;7279;-60
2022/08/11 08:40:28;;;;;;;;;;;;;;;;;;6099861;23;7015;-60
2022/08/11 08:42:56;;;;;;;;;;;;;;;;;;6100184;23;7058;-60
2022/08/11 08:45:24;;;;;;;;;;;;;;;;;;6100418;23;6887;-60
2022/08/11 08:48:01;;;;;;;;;;;;;;;;;;6100389;23;7215;-60
2022/08/11 08:53:31;;;;;;;;;;;;;;;;;;6100424;23;7015;-60
2022/08/11 08:56:00;;;;;;;;;;;;;;;;;;6099818;23;7271;-60
2022/08/11 08:58:26;;;;;;;;;;;;;;;;;;6100051;23;7043;-60
2022/08/11 09:00:54;;;;;;;;;;;;;;;;;;6101399;23;7195;-61
2022/08/11 09:03:21;;;;;;;;;;;;;;;;;;6100156;23;7258;-60
2022/08/11 09:05:48;;;;;;;;;;;;;;;;;;6100354;23;7016;-60
2022/08/11 09:08:20;;;;;;;;;;;;;;;;;;6099949;23;7452;-60
2022/08/11 09:11:48;;;;;;;;;;;;;;;;;;6100136;23;7188;-60
2022/08/11 09:13:35;;;;;;;;;;;;;;;;;;6099476;23;7032;-60
2022/08/11 09:16:02;;;;;;;;;;;;;;;;;;6099166;23;6996;-59
2022/08/11 09:18:30;;;;;;;;;;;;;;;;;;6100040;23;7192;-59
2022/08/11 09:20:56;;;;;;;;;;;;;;;;;;6100104;23;7318;-60
2022/08/11 09:28:51;;;;;;;;;;;;;;;;;;6099364;23;6871;-60
2022/08/11 09:31:21;;;;;;;;;;;;;;;;;;6099680;23;7501;-60
2022/08/11 09:33:50;;;;;;;;;;;;;;;;;;6100370;23;7031;-60
2022/08/11 09:41:48;;;;;;;;;;;;;;;;;;6099715;23;6959;-60
2022/08/11 09:46:59;;;;;;;;;;;;;;;;;;6099865;23;6974;-60
2022/08/11 09:49:26;;;;;;;;;;;;;;;;;;6099337;23;7035;-58
2022/08/11 09:51:53;;;;;;;;;;;;;;;;;;6099902;23;7050;-58
2022/08/11 09:54:20;;;;;;;;;;;;;;;;;;6099833;23;7097;-58
2022/08/11 09:59:31;;;;;;;;;;;;;;;;;;6099616;23;6981;-58
2022/08/11 10:01:59;;;;;;;;;;;;;;;;;;6091850;23;7430;-58
2022/08/11 10:04:33;;;;;;;;;;;;;;;;;;6098783;23;7407;-58
2022/08/11 10:07:01;;;;;;;;;;;;;;;;;;6099054;23;7310;-58
2022/08/11 10:09:33;;;;;;;;;;;;;;;;;;6097717;23;7294;-58
2022/08/11 10:12:04;;;;;;;;;;;;;;;;;;6099108;23;7399;-58
2022/08/11 10:17:18;;;;;;;;;;;;;;;;;;6099112;23;7202;-58
2022/08/11 10:19:46;;;;;;;;;;;;;;;;;;6098853;23;7265;-58
2022/08/11 10:27:45;;;;;;;;;;;;;;;;;;6099405;23;7015;-58
2022/08/11 10:35:45;;;;;;;;;;;;;;;;;;6099143;23;6880;-58
2022/08/11 10:38:14;;;;;;;;;;;;;;;;;;6098269;23;7157;-59
2022/08/11 10:40:45;;;;;;;;;;;;;;;;;;6098865;23;7278;-59
2022/08/11 10:43:14;;;;;;;;;;;;;;;;;;6098692;23;7425;-58
2022/08/11 10:48:34;;;;;;;;;;;;;;;;;;6098813;23;7088;-59
2022/08/11 10:51:16;;;;;;;;;;;;;;;;;;6098888;23;7278;-58
2022/08/11 10:59:25;;;;;;;;;;;;;;;;;;6098945;23;6880;-60
2022/08/11 11:01:52;;;;;;;;;;;;;;;;;;6099218;23;7474;-60
2022/08/11 11:04:37;;;;;;;;;;;;;;;;;;6098962;23;7042;-60
2022/08/11 11:07:02;;;;;;;;;;;;;;;;;;6098912;23;7059;-60
2022/08/11 11:09:40;;;;;;;;;;;;;;;;;;6099611;23;7367;-60
2022/08/11 11:18:00;;;;;;;;;;;;;;;;;;6099575;23;7027;-60
2022/08/11 11:20:25;;;;;;;;;;;;;;;;;;6099742;23;7335;-61
2022/08/11 11:22:54;;;;;;;;;;;;;;;;;;6073857;23;8504;-61
2022/08/11 11:25:24;;;;;;;;;;;;;;;;;;6099588;23;7202;-61
2022/08/11 11:27:52;;;;;;;;;;;;;;;;;;6099182;23;7240;-61
2022/08/11 11:30:18;;;;;;;;;;;;;;;;;;6073548;23;8480;-61
2022/08/11 11:33:03;;;;;;;;;;;;;;;;;;6099047;23;7974;-61
2022/08/11 11:35:34;;;;;;;;;;;;;;;;;;6099027;23;7226;-61
2022/08/11 11:38:01;;;;;;;;;;;;;;;;;;6099065;23;7038;-61
2022/08/11 11:40:27;;;;;;;;;;;;;;;;;;6099023;23;6993;-61
2022/08/11 11:42:57;;;;;;;;;;;;;;;;;;6099181;23;7232;-61
2022/08/11 11:45:24;;;;;;;;;;;;;;;;;;6099168;23;7280;-60
2022/08/11 11:47:51;;;;;;;;;;;;;;;;;;6098746;23;7041;-61
2022/08/11 11:50:37;;;;;;;;;;;;;;;;;;6098942;23;7213;-61
2022/08/11 11:53:05;;;;;;;;;;;;;;;;;;6099292;23;7414;-61
2022/08/11 11:55:31;;;;;;;;;;;;;;;;;;6074988;23;8860;-61
2022/08/11 12:03:32;;;;;;;;;;;;;;;;;;6100496;23;7034;-60
2022/08/11 12:05:58;;;;;;;;;;;;;;;;;;6100598;23;8162;-60
2022/08/11 12:08:25;;;;;;;;;;;;;;;;;;6100445;23;7300;-60
2022/08/11 12:13:57;;;;;;;;;;;;;;;;;;6007001;23;7268;-60
2022/08/11 12:16:24;;;;;;;;;;;;;;;;;;6100608;23;7245;-60
2022/08/11 12:18:52;;;;;;;;;;;;;;;;;;6099736;23;7130;-60
2022/08/11 12:21:18;;;;;;;;;;;;;;;;;;6099570;23;7328;-60
2022/08/11 12:29:18;;;;;;;;;;;;;;;;;;6104249;23;7166;-60
2022/08/11 12:31:45;;;;;;;;;;;;;;;;;;6100884;23;7071;-60
2022/08/11 12:34:12;;;;;;;;;;;;;;;;;;6100025;23;7267;-60
2022/08/11 12:36:44;;;;;;;;;;;;;;;;;;6093924;23;7015;-60
2022/08/11 12:39:12;;;;;;;;;;;;;;;;;;6099562;23;7285;-60
2022/08/11 12:47:14;;;;;;;;;;;;;;;;;;6099385;23;6882;-60
2022/08/11 12:52:33;;;;;;;;;;;;;;;;;;6099384;23;6888;-60
2022/08/11 12:55:01;;;;;;;;;;;;;;;;;;6100016;23;7045;-60
2022/08/11 13:05:48;;;;;;;;;;;;;;;;;;6099449;23;6864;-60
2022/08/11 13:08:15;;;;;;;;;;;;;;;;;;6099752;23;7196;-60
2022/08/11 13:13:28;;;;;;;;;;;;;;;;;;6099245;23;6866;-61
2022/08/11 13:15:54;;;;;;;;;;;;;;;;;;6099942;23;7459;-61
2022/08/11 13:18:22;;;;;;;;;;;;;;;;;;6099832;23;7548;-61
2022/08/11 13:20:56;;;;;;;;;;;;;;;;;;6100119;23;7226;-66
2022/08/11 13:23:24;;;;;;;;;;;;;;;;;;6100004;23;7225;-64
2022/08/11 13:25:53;;;;;;;;;;;;;;;;;;6100129;23;7388;-62
2022/08/11 13:28:21;;;;;;;;;;;;;;;;;;6100094;23;7190;-61
2022/08/11 13:33:40;;;;;;;;;;;;;;;;;;6100098;23;7456;-61
2022/08/11 13:36:06;;;;;;;;;;;;;;;;;;6099703;23;7207;-61
2022/08/11 13:38:33;;;;;;;;;;;;;;;;;;6099602;23;7519;-61
2022/08/11 13:41:00;;;;;;;;;;;;;;;;;;6098993;23;7014;-62
2022/08/11 13:43:27;;;;;;;;;;;;;;;;;;6099898;23;7140;-62
2022/08/11 13:46:17;;;;;;;;;;;;;;;;;;6099873;23;6860;-61
2022/08/11 13:48:41;;;;;;;;;;;;;;;;;;6099016;23;7068;-61
2022/08/11 13:51:30;;;;;;;;;;;;;;;;;;6098210;23;7499;-64
2022/08/11 13:54:06;;;;;;;;;;;;;;;;;;6097224;23;8026;-65
2022/08/11 13:56:34;;;;;;;;;;;;;;;;;;6072811;23;7404;-64
2022/08/11 13:59:01;;;;;;;;;;;;;;;;;;6098083;23;7278;-66
2022/08/11 14:01:33;;;;;;;;;;;;;;;;;;6099475;23;7573;-65
2022/08/11 14:04:14;;;;;;;;;;;;;;;;;;6099125;23;7232;-68
2022/08/11 14:06:52;;;;;;;;;;;;;;;;;;6097922;23;7077;-68
2022/08/11 14:09:24;;;;;;;;;;;;;;;;;;6099168;23;7289;-68
2022/08/11 14:14:38;;;;;;;;;;;;;;;;;;6099557;23;7047;-67
2022/08/11 14:17:07;;;;;;;;;;;;;;;;;;6098828;23;7148;-67
2022/08/11 14:19:40;;;;;;;;;;;;;;;;;;6099100;23;7075;-64
2022/08/11 14:22:06;;;;;;;;;;;;;;;;;;6098661;23;7214;-64
2022/08/11 14:24:33;;;;;;;;;;;;;;;;;;6098819;23;7195;-64
2022/08/11 14:27:00;;;;;;;;;;;;;;;;;;6098952;23;7495;-64
2022/08/11 14:29:28;;;;;;;;;;;;;;;;;;6098954;23;8030;-64
2022/08/11 14:31:56;;;;;;;;;;;;;;;;;;6098712;23;7023;-64
2022/08/11 14:34:27;;;;;;;;;;;;;;;;;;6098938;23;7177;-64
2022/08/11 14:36:55;;;;;;;;;;;;;;;;;;6098899;23;7163;-64
2022/08/11 14:39:25;;;;;;;;;;;;;;;;;;6099457;23;6996;-64
2022/08/11 14:47:32;;;;;;;;;;;;;;;;;;6099278;23;6843;-64
2022/08/11 14:50:01;;;;;;;;;;;;;;;;;;6099234;23;7218;-64
2022/08/11 14:52:31;;;;;;;;;;;;;;;;;;6099541;23;7227;-64
2022/08/11 14:57:42;;;;;;;;;;;;;;;;;;6091458;23;7017;-64
2022/08/11 15:00:14;;;;;;;;;;;;;;;;;;6098464;23;7188;-64
2022/08/11 15:05:26;;;;;;;;;;;;;;;;;;6097602;23;6978;-64
2022/08/11 15:07:56;;;;;;;;;;;;;;;;;;6098614;23;7249;-64
2022/08/11 15:10:22;;;;;;;;;;;;;;;;;;6098984;23;7338;-64
2022/08/11 15:12:48;;;;;;;;;;;;;;;;;;6098182;23;7741;-64
2022/08/11 15:18:03;;;;;;;;;;;;;;;;;;6098627;23;6944;-64
2022/08/11 15:25:58;;;;;;;;;;;;;;;;;;6099012;23;6961;-64
2022/08/11 15:45:46;;;;;;;;;;;;;;;;;;6100693;23;7045;-64
2022/08/11 15:48:05;;;;;;;;;;;;;;;;;;6100198;23;6868;-64
2022/08/11 15:50:34;;;;;;;;;;;;;;;;;;6100745;23;7162;-68
2022/08/11 15:53:07;;;;;;;;;;;;;;;;;;6100823;23;7203;-64
2022/08/11 15:55:34;;;;;;;;;;;;;;;;;;6100370;23;7107;-64
2022/08/11 16:06:24;;;;;;;;;;;;;;;;;;6100517;23;6999;-64
2022/08/11 16:08:55;;;;;;;;;;;;;;;;;;6100676;23;7228;-64
2022/08/11 16:11:21;;;;;;;;;;;;;;;;;;6100965;23;7291;-64
2022/08/11 16:16:35;;;;;;;;;;;;;;;;;;6100212;23;6997;-63
2022/08/11 16:19:07;;;;;;;;;;;;;;;;;;6100725;23;7148;-64
2022/08/11 16:21:35;;;;;;;;;;;;;;;;;;6100609;23;7187;-64
2022/08/11 16:24:03;;;;;;;;;;;;;;;;;;6100629;23;7181;-64
2022/08/11 16:26:30;;;;;;;;;;;;;;;;;;6100916;23;7186;-64
2022/08/11 16:28:59;;;;;;;;;;;;;;;;;;6100459;23;7103;-63
2022/08/11 16:31:27;;;;;;;;;;;;;;;;;;6100430;23;7366;-64
2022/08/11 16:33:54;;;;;;;;;;;;;;;;;;6100835;23;6946;-64
2022/08/11 16:39:17;;;;;;;;;;;;;;;;;;6100258;23;6836;-64
2022/08/11 16:47:17;;;;;;;;;;;;;;;;;;6100098;23;6825;-64
2022/08/11 16:49:46;;;;;;;;;;;;;;;;;;6100495;23;7462;-65
2022/08/11 16:52:12;;;;;;;;;;;;;;;;;;6100428;23;7215;-65
2022/08/11 16:54:40;;;;;;;;;;;;;;;;;;6100383;23;6844;-64
2022/08/11 17:00:05;;;;;;;;;;;;;;;;;;6035022;23;7276;-64
2022/08/11 17:13:51;;;;;;;;;;;;;;;;;;6100355;23;6851;-64
2022/08/11 17:16:40;;;;;;;;;;;;;;;;;;6099546;23;7359;-64
2022/08/11 17:19:12;;;;;;;;;;;;;;;;;;6100117;23;7210;-64
2022/08/11 17:23:45;;;;;;;;;;;;;;;;;;6100115;23;7164;-64
2022/08/11 17:24:27;;;;;;;;;;;;;;;;;;6099586;23;7063;-64
2022/08/11 17:26:58;;;;;;;;;;;;;;;;;;6100185;23;7070;-64
2022/08/11 17:29:32;;;;;;;;;;;;;;;;;;6099946;23;7244;-64
2022/08/11 17:37:32;;;;;;;;;;;;;;;;;;6099529;23;7018;-63
2022/08/11 17:40:05;;;;;;;;;;;;;;;;;;6099928;23;7241;-63
2022/08/11 17:50:52;;;;;;;;;;;;;;;;;;6099723;23;6985;-63
2022/08/11 18:01:38;;;;;;;;;;;;;;;;;;6099519;23;6975;-63
2022/08/11 18:04:06;;;;;;;;;;;;;;;;;;6099732;23;7130;-63
2022/08/11 18:06:34;;;;;;;;;;;;;;;;;;6099723;23;7180;-63
